Time;durP1;ratioP1;P1;durP2;ratioP2;P2;SDS_P1;SDS_P2;PMS_P1;PMS_P2;Temp;Humidity;BMP_temperature;BMP_pressure;BME280_temperature;BME280_humidity;BME280_pressure;Samples;Min_cycle;Max_cycle;Signal;HPM_P1;HPM_P2
2022/09/21 00:01:14;;;;;;;6.93;2.77;;;;;;;13.51;100.00;99740.44;1651196;86;21138;-57
2022/09/21 00:03:42;;;;;;;;;;;;;;;13.42;100.00;99739.91;1649398;86;21039;-56
2022/09/21 00:06:17;;;;;;;6.07;3.23;;;;;;;13.37;100.00;99739.25;1634514;86;20474;-62
2022/09/21 00:08:45;;;;;;;5.13;2.90;;;;;;;13.41;100.00;99733.56;1634704;87;22282;-56
2022/09/21 00:11:25;;;;;;;6.40;3.00;;;;;;;13.33;100.00;99728.92;1635431;87;22626;-56
2022/09/21 00:13:58;;;;;;;7.73;2.63;;;;;;;13.27;100.00;99749.91;1634250;86;21791;-56
2022/09/21 00:16:26;;;;;;;5.70;2.80;;;;;;;13.27;100.00;99749.91;1634405;87;21330;-57
2022/09/21 00:18:55;;;;;;;4.57;2.83;;;;;;;13.32;100.00;99753.47;1634978;87;21742;-57
2022/09/21 00:21:22;;;;;;;4.90;2.90;;;;;;;13.32;100.00;99750.85;1634813;87;21850;-66
2022/09/21 00:23:50;;;;;;;6.13;3.10;;;;;;;13.35;100.00;99744.40;1634840;87;21152;-56
2022/09/21 00:26:19;;;;;;;5.03;2.87;;;;;;;13.35;100.00;99744.40;1634547;86;21104;-59
2022/09/21 00:28:47;;;;;;;5.43;2.90;;;;;;;13.35;100.00;99757.48;1635103;87;22667;-56
2022/09/21 00:31:16;;;;;;;6.10;3.57;;;;;;;13.33;100.00;99752.48;1634987;87;21732;-60
2022/09/21 00:33:43;;;;;;;7.43;3.93;;;;;;;13.33;100.00;99749.86;1634752;87;20991;-57
2022/09/21 00:36:16;;;;;;;5.30;3.23;;;;;;;13.28;100.00;99742.34;1634912;87;21603;-64
2022/09/21 00:38:43;;;;;;;5.70;3.33;;;;;;;13.28;100.00;99742.34;1635064;86;22260;-56
2022/09/21 00:41:12;;;;;;;7.10;3.50;;;;;;;13.32;100.00;99739.08;1634738;87;21842;-56
2022/09/21 00:43:45;;;;;;;6.20;3.67;;;;;;;13.33;100.00;99736.77;1634616;87;21812;-56
2022/09/21 00:46:28;;;;;;;6.13;3.17;;;;;;;13.31;100.00;99730.14;1634776;87;21839;-64
2022/09/21 00:48:57;;;;;;;4.57;3.17;;;;;;;13.32;100.00;99737.77;1635116;87;22268;-66
2022/09/21 00:51:24;;;;;;;6.47;3.87;;;;;;;13.27;100.00;99731.07;1634841;87;21692;-57
2022/09/21 00:53:54;;;;;;;5.67;2.93;;;;;;;13.28;100.00;99731.86;1634865;87;21783;-56
2022/09/21 00:56:22;;;;;;;8.00;3.50;;;;;;;13.23;100.00;99721.22;1634551;87;21750;-57
2022/09/21 00:58:50;;;;;;;5.97;3.23;;;;;;;13.17;100.00;99723.36;1635194;87;21098;-56
2022/09/21 01:01:17;;;;;;;4.87;3.00;;;;;;;13.19;100.00;99726.58;1634943;86;21777;-65
2022/09/21 01:03:45;;;;;;;6.23;3.20;;;;;;;13.22;100.00;99734.81;1634942;86;22289;-55
2022/09/21 01:06:13;;;;;;;5.93;3.00;;;;;;;13.21;100.00;99738.93;1614753;87;21756;-57
2022/09/21 01:08:41;;;;;;;5.10;2.77;;;;;;;13.22;100.00;99745.77;1635037;87;22001;-56
2022/09/21 01:11:29;;;;;;;5.13;2.90;;;;;;;13.15;100.00;99751.06;1634542;87;21460;-58
2022/09/21 01:14:27;;;;;;;5.50;2.90;;;;;;;13.11;100.00;99748.06;1634555;87;21632;-66
2022/09/21 01:17:17;;;;;;;5.70;3.03;;;;;;;13.10;100.00;99746.44;1634770;87;21805;-57
2022/09/21 01:20:07;;;;;;;6.03;2.83;;;;;;;13.08;100.00;99743.77;1628380;87;22177;-56
2022/09/21 01:22:55;;;;;;;3.97;2.70;;;;;;;13.09;100.00;99742.74;1634839;87;21723;-55
2022/09/21 01:25:54;;;;;;;3.97;2.50;;;;;;;12.99;100.00;99746.32;1634726;87;21714;-56
2022/09/21 01:28:33;;;;;;;3.13;2.23;;;;;;;12.94;100.00;99740.93;1634313;87;21625;-59
2022/09/21 01:31:04;;;;;;;5.33;1.97;;;;;;;13.01;100.00;99737.77;1634793;87;22419;-56
2022/09/21 01:33:35;;;;;;;6.67;2.70;;;;;;;13.10;100.00;99748.27;1634624;84;21747;-56
2022/09/21 01:36:09;;;;;;;4.67;2.80;;;;;;;13.13;100.00;99749.16;1633795;87;22062;-58
2022/09/21 01:38:51;;;;;;;4.93;2.57;;;;;;;13.13;100.00;99738.69;1634411;87;22116;-58
2022/09/21 01:41:22;;;;;;;4.27;2.50;;;;;;;13.20;100.00;99742.57;1635265;87;21691;-56
2022/09/21 01:43:54;;;;;;;4.00;2.00;;;;;;;13.20;100.00;99742.06;1634719;87;21754;-58
2022/09/21 01:46:21;;;;;;;4.90;2.83;;;;;;;13.21;100.00;99752.02;1634721;87;21775;-56
2022/09/21 01:48:55;;;;;;;5.70;2.80;;;;;;;13.19;100.00;99746.20;1615159;87;21615;-55
2022/09/21 01:51:22;;;;;;;5.30;2.17;;;;;;;13.18;100.00;99742.77;1635064;87;21721;-55
2022/09/21 01:53:53;;;;;;;4.80;2.67;;;;;;;13.14;100.00;99738.97;1614397;87;21731;-63
2022/09/21 01:56:25;;;;;;;3.47;2.00;;;;;;;13.08;100.00;99743.25;1635797;87;22001;-55
2022/09/21 01:59:23;;;;;;;8.30;3.17;;;;;;;13.05;100.00;99740.25;1615940;87;20936;-55
2022/09/21 02:01:55;;;;;;;3.53;2.50;;;;;;;13.01;100.00;99738.56;1635734;87;22677;-56
2022/09/21 02:04:22;;;;;;;6.87;2.33;;;;;;;13.01;100.00;99742.49;1635782;86;21732;-57
2022/09/21 02:06:49;;;;;;;5.17;2.87;;;;;;;12.97;100.00;99747.05;1635822;87;21779;-56
2022/09/21 02:09:18;;;;;;;3.87;2.30;;;;;;;12.94;100.00;99740.93;1634695;87;21616;-63
2022/09/21 02:11:45;;;;;;;4.83;2.40;;;;;;;12.95;100.00;99745.14;1635537;87;21851;-55
2022/09/21 02:14:17;;;;;;;5.40;2.77;;;;;;;12.91;100.00;99739.02;1635391;87;21772;-55
2022/09/21 02:17:13;;;;;;;6.33;3.17;;;;;;;12.82;100.00;99740.29;1634341;87;21683;-59
2022/09/21 02:19:53;;;;;;;5.07;3.23;;;;;;;12.76;100.00;99741.63;1635021;87;21835;-57
2022/09/21 02:22:53;;;;;;;5.80;2.63;;;;;;;12.69;100.00;99731.70;1634245;87;21668;-57
2022/09/21 02:26:07;;;;;;;6.00;3.77;;;;;;;12.50;100.00;99728.17;1630460;87;21724;-57
2022/09/21 02:28:48;;;;;;;7.17;4.00;;;;;;;12.35;100.00;99734.49;1634852;87;22154;-57
2022/09/21 02:31:36;;;;;;;7.35;3.70;;;;;;;12.35;100.00;99734.49;1635271;87;21722;-57
2022/09/21 02:34:20;;;;;;;9.20;4.67;;;;;;;12.31;100.00;99736.39;1635063;87;21104;-57
2022/09/21 02:36:55;;;;;;;8.47;4.13;;;;;;;12.14;100.00;99732.14;1634935;87;21855;-57
2022/09/21 02:39:40;;;;;;;7.30;4.20;;;;;;;12.14;100.00;99732.14;1614711;87;22074;-59
2022/09/21 02:42:14;;;;;;;7.43;3.67;;;;;;;12.06;100.00;99713.58;1634580;86;21801;-61
2022/09/21 02:44:59;;;;;;;7.47;3.83;;;;;;;11.99;100.00;99715.91;1634729;87;21740;-57
2022/09/21 02:47:59;;;;;;;7.23;4.03;;;;;;;11.99;100.00;99708.88;1634976;87;21603;-56
2022/09/21 02:50:49;;;;;;;8.17;3.67;;;;;;;11.99;100.00;99708.88;1624096;87;21649;-64
2022/09/21 02:53:23;;;;;;;6.30;3.13;;;;;;;12.02;100.00;99706.36;1633215;87;21538;-58
2022/09/21 02:55:51;;;;;;;5.20;3.30;;;;;;;12.07;100.00;99703.42;1635171;87;21587;-57
2022/09/21 02:58:18;;;;;;;5.53;2.83;;;;;;;12.07;100.00;99703.42;1614618;87;21641;-65
2022/09/21 03:00:46;;;;;;;7.23;3.90;;;;;;;12.13;100.00;99705.73;1634948;87;22212;-59
2022/09/21 03:03:19;;;;;;;5.47;3.73;;;;;;;12.28;100.00;99712.01;1634713;87;21685;-57
2022/09/21 03:05:48;;;;;;;5.67;2.97;;;;;;;12.28;100.00;99712.01;1647101;86;22182;-60
2022/09/21 03:08:16;;;;;;;6.37;2.83;;;;;;;12.22;100.00;99721.97;1652332;86;21765;-60
2022/09/21 03:10:45;;;;;;;5.83;3.13;;;;;;;12.07;100.00;99715.17;1651962;86;22218;-65
2022/09/21 03:13:12;;;;;;;4.93;2.90;;;;;;;12.12;100.00;99710.63;1652308;86;22046;-56
2022/09/21 03:15:39;;;;;;;6.73;3.10;;;;;;;12.12;100.00;99710.63;1652173;86;22215;-56
2022/09/21 03:18:09;;;;;;;3.93;2.80;;;;;;;12.07;100.00;99703.93;1652429;86;21788;-56
2022/09/21 03:20:38;;;;;;;5.07;3.10;;;;;;;12.05;100.00;99700.73;1652076;86;21740;-58
2022/09/21 03:23:05;;;;;;;5.67;2.80;;;;;;;11.93;100.00;99701.38;1651696;86;21898;-57
2022/09/21 03:25:33;;;;;;;5.20;2.53;;;;;;;11.97;100.00;99703.55;1652221;86;21998;-58
2022/09/21 03:28:01;;;;;;;4.63;2.50;;;;;;;11.79;100.00;99718.04;1652043;86;21498;-56
2022/09/21 03:30:28;;;;;;;6.03;2.67;;;;;;;11.79;100.00;99718.04;1652035;86;21543;-58
2022/09/21 03:32:55;;;;;;;9.63;3.57;;;;;;;11.69;100.00;99720.26;1651517;86;21488;-58
2022/09/21 03:35:24;;;;;;;5.30;3.20;;;;;;;11.87;100.00;99721.77;1651585;86;21613;-57
2022/09/21 03:37:51;;;;;;;5.47;3.20;;;;;;;11.87;100.00;99721.77;1652109;86;21704;-57
2022/09/21 03:40:18;;;;;;;6.97;3.10;;;;;;;12.82;100.00;99719.87;1652206;86;21697;-64
2022/09/21 03:42:46;;;;;;;5.90;3.63;;;;;;;12.82;100.00;99719.87;1651689;86;21472;-57
2022/09/21 03:45:14;;;;;;;5.20;3.53;;;;;;;13.40;100.00;99720.98;1651508;86;22024;-59
2022/09/21 03:47:41;;;;;;;5.83;3.20;;;;;;;13.91;100.00;99726.47;1652024;86;22242;-56
2022/09/21 03:50:09;;;;;;;5.47;3.13;;;;;;;14.22;100.00;99720.27;1651961;86;22178;-56
2022/09/21 03:52:37;;;;;;;6.20;3.73;;;;;;;14.46;100.00;99724.31;1651690;86;21146;-64
2022/09/21 03:55:05;;;;;;;5.07;2.90;;;;;;;14.86;100.00;99725.14;1651682;86;21034;-57
2022/09/21 03:57:33;;;;;;;4.73;3.00;;;;;;;15.46;100.00;99727.65;1651716;86;21403;-56
2022/09/21 04:00:02;;;;;;;4.93;2.90;;;;;;;16.25;100.00;99720.97;1651925;86;20991;-56
2022/09/21 04:02:31;;;;;;;4.05;2.62;;;;;;;17.04;100.00;99725.55;1652365;86;20907;-56
2022/09/21 04:04:58;;;;;;;5.83;3.37;;;;;;;17.84;100.00;99728.88;1647459;86;21529;-58
2022/09/21 04:07:26;;;;;;;6.97;2.73;;;;;;;18.59;100.00;99728.71;1634667;87;21846;-56
2022/09/21 04:09:53;;;;;;;4.97;2.63;;;;;;;19.34;100.00;99725.70;1614849;87;21602;-56
2022/09/21 04:12:21;;;;;;;4.90;2.67;;;;;;;20.10;100.00;99722.19;1634895;87;21504;-56
2022/09/21 04:14:49;;;;;;;4.70;2.63;;;;;;;20.83;100.00;99718.69;1634992;87;21464;-62
2022/09/21 04:17:16;;;;;;;6.83;2.73;;;;;;;21.60;100.00;99721.60;1633964;87;21949;-57
2022/09/21 04:19:44;;;;;;;4.30;3.10;;;;;;;22.25;100.00;99723.53;1635041;87;21026;-55
2022/09/21 04:22:12;;;;;;;4.47;2.70;;;;;;;22.79;100.00;99729.31;1635383;87;21085;-55
2022/09/21 04:24:39;;;;;;;4.20;2.53;;;;;;;23.42;100.00;99725.38;1635249;86;21007;-55
2022/09/21 04:27:08;;;;;;;7.30;3.00;;;;;;;23.83;100.00;99732.14;1634654;87;20951;-64
2022/09/21 04:29:36;;;;;;;5.30;3.03;;;;;;;24.10;100.00;99733.70;1635132;87;22169;-57
2022/09/21 04:32:03;;;;;;;5.30;3.20;;;;;;;24.49;100.00;99733.48;1635124;87;21050;-55
2022/09/21 04:34:31;;;;;;;5.10;3.50;;;;;;;24.77;100.00;99738.93;1635335;87;20967;-55
2022/09/21 04:36:58;;;;;;;6.03;3.33;;;;;;;24.98;93.44;99738.09;1634969;87;21163;-63
2022/09/21 04:39:26;;;;;;;5.22;3.37;;;;;;;25.30;85.48;99742.64;1634886;87;21697;-56
2022/09/21 04:41:53;;;;;;;7.17;2.95;;;;;;;25.60;80.49;99739.97;1635080;87;21322;-56
2022/09/21 04:44:21;;;;;;;4.92;2.50;;;;;;;25.83;77.75;99741.45;1635488;87;21006;-56
2022/09/21 04:46:49;;;;;;;5.00;2.70;;;;;;;26.07;70.21;99742.05;1635948;87;21130;-56
2022/09/21 04:49:16;;;;;;;4.25;2.80;;;;;;;26.19;64.62;99744.20;1634428;87;21047;-61
2022/09/21 04:51:43;;;;;;;4.67;2.65;;;;;;;26.34;62.97;99743.09;1635576;87;21594;-56
2022/09/21 04:54:10;;;;;;;3.65;2.40;;;;;;;26.38;61.45;99739.52;1635479;87;21163;-56
2022/09/21 04:56:38;;;;;;;4.90;2.42;;;;;;;26.46;59.78;99741.27;1635706;87;20967;-57
2022/09/21 04:59:05;;;;;;;4.42;2.50;;;;;;;26.53;57.88;99743.77;1634914;87;21050;-63
2022/09/21 05:01:32;;;;;;;3.45;2.77;;;;;;;26.35;56.84;99750.80;1635664;87;21935;-56
2022/09/21 05:04:03;;;;;;;4.80;3.52;;;;;;;25.91;56.96;99748.24;1635713;87;21039;-56
2022/09/21 05:06:30;;;;;;;4.12;2.98;;;;;;;25.27;61.68;99751.25;1648175;86;21234;-56
2022/09/21 05:11:44;;;;;;;4.62;3.52;;;;;;;24.25;72.94;99750.83;1652486;86;21002;-56
2022/09/21 05:14:12;;;;;;;4.85;3.10;;;;;;;23.63;81.56;99754.42;1652688;86;20975;-55
2022/09/21 05:16:39;;;;;;;4.37;2.80;;;;;;;23.11;91.60;99757.27;1652344;86;20967;-57
2022/09/21 05:19:06;;;;;;;5.77;3.37;;;;;;;22.81;98.77;99765.17;1651639;86;21777;-57
2022/09/21 05:21:35;;;;;;;5.00;3.30;;;;;;;22.36;100.00;99767.55;1652708;86;21335;-55
2022/09/21 05:24:04;;;;;;;4.10;2.80;;;;;;;22.07;100.00;99768.69;1652592;86;20932;-55
2022/09/21 05:26:32;;;;;;;6.30;3.30;;;;;;;21.86;100.00;99771.95;1652796;86;21095;-55
2022/09/21 05:28:59;;;;;;;5.23;3.40;;;;;;;21.63;100.00;99779.95;1651671;86;21081;-56
2022/09/21 05:31:41;;;;;;;4.77;3.50;;;;;;;21.41;100.00;99780.77;1652667;86;22006;-55
2022/09/21 05:34:46;;;;;;;4.22;2.92;;;;;;;21.18;100.00;99777.55;1650208;86;21078;-56
2022/09/21 05:37:46;;;;;;;5.00;3.50;;;;;;;20.82;100.00;99782.00;1653051;86;21113;-55
2022/09/21 05:40:14;;;;;;;5.63;3.20;;;;;;;20.34;100.00;99778.64;1652277;86;21690;-55
2022/09/21 05:42:41;;;;;;;4.53;3.23;;;;;;;20.14;100.00;99783.33;1652393;86;20939;-55
2022/09/21 05:45:17;;;;;;;4.93;3.47;;;;;;;19.94;100.00;99777.41;1652157;86;21147;-56
2022/09/21 05:48:02;;;;;;;5.27;3.70;;;;;;;20.01;100.00;99778.52;1651463;86;21034;-57
2022/09/21 05:50:56;;;;;;;4.60;3.50;;;;;;;19.93;100.00;99790.38;1652083;86;21557;-57
2022/09/21 05:53:59;;;;;;;6.00;3.60;;;;;;;19.83;100.00;99789.78;1651514;86;21567;-56
2022/09/21 05:56:53;;;;;;;4.90;4.07;;;;;;;19.86;100.00;99795.89;1641774;86;21137;-65
2022/09/21 05:59:49;;;;;;;4.87;4.10;;;;;;;19.94;100.00;99797.25;1652243;86;21233;-56
2022/09/21 06:02:57;;;;;;;5.83;4.83;;;;;;;19.98;100.00;99795.69;1651218;86;21094;-58
2022/09/21 06:05:24;;;;;;;5.73;4.30;;;;;;;19.93;100.00;99795.14;1648940;86;21031;-66
2022/09/21 06:07:53;;;;;;;6.47;4.43;;;;;;;19.92;100.00;99804.10;1651734;86;21046;-57
2022/09/21 06:10:23;;;;;;;5.93;4.73;;;;;;;20.14;100.00;99796.03;1651980;86;21638;-57
2022/09/21 06:12:51;;;;;;;7.63;4.77;;;;;;;20.79;100.00;99795.77;1652039;86;20860;-59
2022/09/21 06:15:19;;;;;;;6.23;5.13;;;;;;;21.49;100.00;99795.61;1651599;86;20968;-58
2022/09/21 06:17:48;;;;;;;7.07;6.10;;;;;;;21.94;100.00;99804.56;1651507;86;21030;-58
2022/09/21 06:20:15;;;;;;;7.37;6.67;;;;;;;22.00;100.00;99809.31;1652390;86;21549;-57
2022/09/21 06:22:42;;;;;;;9.50;7.30;;;;;;;22.02;100.00;99803.22;1651907;86;20967;-66
2022/09/21 06:25:09;;;;;;;7.70;6.83;;;;;;;22.37;100.00;99797.02;1651739;86;22219;-57
2022/09/21 06:27:36;;;;;;;9.23;6.77;;;;;;;22.72;100.00;99797.37;1651209;86;21481;-59
2022/09/21 06:30:04;;;;;;;9.43;7.80;;;;;;;22.98;100.00;99796.70;1652118;86;21904;-58
2022/09/21 06:32:32;;;;;;;8.03;6.00;;;;;;;23.19;98.12;99801.36;1652184;86;21497;-66
2022/09/21 06:34:59;;;;;;;6.85;6.15;;;;;;;23.35;92.18;99803.90;1651770;86;21513;-57
2022/09/21 06:37:26;;;;;;;9.73;6.73;;;;;;;23.41;88.85;99812.90;1651871;86;21210;-67
2022/09/21 06:39:54;;;;;;;7.97;6.90;;;;;;;23.35;85.56;99814.54;1652076;86;21838;-57
2022/09/21 06:42:21;;;;;;;9.03;6.67;;;;;;;23.13;85.04;99818.95;1651825;86;21574;-68
2022/09/21 06:44:48;;;;;;;7.00;5.83;;;;;;;23.11;88.07;99823.73;1651655;86;21495;-57
2022/09/21 06:47:16;;;;;;;7.80;6.62;;;;;;;23.35;86.38;99828.63;1652038;86;21090;-57
2022/09/21 06:49:44;;;;;;;7.35;6.65;;;;;;;23.46;78.23;99827.47;1651358;86;21251;-66
2022/09/21 06:52:11;;;;;;;7.10;6.25;;;;;;;23.46;77.68;99820.83;1651959;86;21080;-58
2022/09/21 06:54:39;;;;;;;8.18;6.37;;;;;;;23.43;79.03;99824.03;1651498;86;21477;-55
2022/09/21 06:57:07;;;;;;;7.42;6.47;;;;;;;23.53;73.48;99822.62;1652147;86;20993;-56
2022/09/21 06:59:34;;;;;;;5.97;5.37;;;;;;;23.60;71.15;99826.81;1652080;86;21027;-56
2022/09/21 07:02:03;;;;;;;7.33;5.80;;;;;;;23.74;64.78;99828.58;1651311;86;21297;-56
2022/09/21 07:04:30;;;;;;;6.10;5.42;;;;;;;24.00;64.69;99827.80;1651379;86;21129;-57
2022/09/21 07:06:58;;;;;;;6.78;5.60;;;;;;;24.17;63.07;99839.34;1651879;86;21033;-55
2022/09/21 07:09:25;;;;;;;7.28;5.55;;;;;;;24.36;57.98;99831.41;1651909;86;21023;-56
2022/09/21 07:11:53;;;;;;;6.47;5.80;;;;;;;24.70;57.47;99832.61;1651775;86;21449;-62
2022/09/21 07:14:21;;;;;;;6.35;5.53;;;;;;;25.18;57.24;99830.34;1651786;86;21165;-65
2022/09/21 07:16:49;;;;;;;7.60;5.60;;;;;;;25.67;53.56;99827.13;1651881;86;21010;-56
2022/09/21 07:19:16;;;;;;;5.90;5.00;;;;;;;26.08;50.56;99820.30;1651538;86;21023;-56
2022/09/21 07:21:43;;;;;;;5.53;4.72;;;;;;;26.39;46.43;99822.59;1651912;86;21059;-56
2022/09/21 07:24:11;;;;;;;7.03;5.42;;;;;;;26.46;44.91;99821.44;1651454;86;21134;-63
2022/09/21 07:26:38;;;;;;;5.95;5.10;;;;;;;26.50;44.94;99823.76;1651298;86;21169;-57
2022/09/21 07:29:06;;;;;;;5.95;4.78;;;;;;;26.67;44.46;99823.94;1652070;86;21824;-56
2022/09/21 07:31:33;;;;;;;4.47;3.95;;;;;;;26.87;42.89;99826.16;1652120;86;21340;-56
2022/09/21 07:34:01;;;;;;;4.05;3.52;;;;;;;26.94;40.98;99825.74;1652647;86;21078;-66
2022/09/21 07:36:28;;;;;;;5.75;4.15;;;;;;;27.03;41.07;99827.14;1651413;86;21027;-64
2022/09/21 07:38:55;;;;;;;5.05;4.25;;;;;;;27.22;39.41;99829.67;1652680;86;21684;-56
2022/09/21 07:41:23;;;;;;;5.50;4.95;;;;;;;27.31;40.21;99827.83;1652043;86;21074;-56
2022/09/21 07:43:50;;;;;;;4.15;3.62;;;;;;;27.52;39.39;99824.91;1652236;86;21079;-56
2022/09/21 07:46:19;;;;;;;4.08;3.15;;;;;;;27.61;37.64;99823.61;1651869;86;21019;-58
2022/09/21 07:48:46;;;;;;;4.67;3.65;;;;;;;27.60;38.67;99828.17;1651358;86;21109;-56
2022/09/21 07:51:15;;;;;;;4.22;3.00;;;;;;;27.70;37.99;99830.37;1651688;86;21332;-56
2022/09/21 07:53:43;;;;;;;5.00;3.50;;;;;;;27.70;37.42;99821.78;1651984;86;21631;-56
2022/09/21 07:56:16;;;;;;;3.62;2.52;;;;;;;27.67;37.83;99826.41;1652283;86;21027;-56
2022/09/21 08:01:31;;;;;;;3.30;2.60;;;;;;;27.69;37.15;99828.21;1652344;86;20947;-57
2022/09/21 08:03:58;;;;;;;3.98;2.40;;;;;;;27.69;36.97;99825.53;1651722;86;21269;-66
2022/09/21 08:06:28;;;;;;;3.77;1.75;;;;;;;27.71;36.97;99832.73;1650817;86;21003;-66
2022/09/21 08:08:55;;;;;;;2.55;1.47;;;;;;;27.87;36.45;99829.12;1652077;86;21630;-56
2022/09/21 08:11:22;;;;;;;2.70;1.22;;;;;;;27.82;35.19;99822.02;1652072;86;21073;-56
2022/09/21 08:13:55;;;;;;;1.65;1.30;;;;;;;27.66;34.71;99830.19;1652603;86;21019;-57
2022/09/21 08:16:24;;;;;;;2.37;1.37;;;;;;;27.44;35.37;99835.02;1651765;86;21311;-66
2022/09/21 08:18:51;;;;;;;1.90;1.10;;;;;;;27.34;35.40;99834.70;1652657;86;21042;-56
2022/09/21 08:21:19;;;;;;;1.98;1.00;;;;;;;27.26;34.42;99838.12;1652539;86;21884;-56
2022/09/21 08:23:48;;;;;;;1.92;0.90;;;;;;;27.34;34.53;99843.29;1652827;86;21003;-58
2022/09/21 08:26:18;;;;;;;1.62;1.27;;;;;;;27.47;33.67;99844.34;1652442;86;21165;-59
2022/09/21 08:28:49;;;;;;;1.50;1.10;;;;;;;27.57;33.84;99834.69;1652165;86;21550;-58
2022/09/21 08:31:18;;;;;;;;;;;;;;;27.72;33.57;99837.53;1654888;86;21039;-58
2022/09/21 08:33:48;;;;;;;1.50;0.80;;;;;;;27.85;33.42;99834.80;1652824;86;20126;-56
2022/09/21 08:36:15;;;;;;;1.45;1.00;;;;;;;27.81;32.64;99832.50;1652079;86;21039;-66
2022/09/21 08:38:42;;;;;;;2.17;1.25;;;;;;;27.75;32.21;99836.95;1651817;86;21489;-57
2022/09/21 08:41:15;;;;;;;1.98;1.40;;;;;;;27.47;32.65;99838.98;1652437;86;21119;-57
2022/09/21 08:43:51;;;;;;;5.12;2.08;;;;;;;27.32;32.83;99840.93;1652731;86;21521;-57
2022/09/21 08:46:25;;;;;;;2.05;1.10;;;;;;;27.29;33.70;99840.75;1651754;86;21477;-66
2022/09/21 08:49:06;;;;;;;1.60;1.15;;;;;;;27.38;34.21;99845.59;1652283;86;21601;-58
2022/09/21 08:51:36;;;;;;;1.57;1.10;;;;;;;27.53;32.77;99849.79;1653159;86;20985;-58
2022/09/21 08:54:08;;;;;;;2.05;1.00;;;;;;;27.53;32.43;99848.45;1651756;86;21793;-67
2022/09/21 08:56:36;;;;;;;2.55;1.62;;;;;;;27.49;32.07;99843.47;1651374;86;21322;-59
2022/09/21 08:59:07;;;;;;;1.57;1.10;;;;;;;27.46;32.28;99841.39;1651748;86;21118;-58
2022/09/21 09:01:48;;;;;;;1.87;1.30;;;;;;;27.30;32.11;99844.44;1651918;86;21002;-65
2022/09/21 09:04:51;;;;;;;1.40;1.00;;;;;;;27.10;33.09;99844.91;1651923;86;21508;-57
2022/09/21 09:07:32;;;;;;;1.60;1.00;;;;;;;26.98;34.03;99851.34;1642785;86;21675;-69
2022/09/21 09:10:36;;;;;;;1.85;1.20;;;;;;;27.11;33.17;99845.17;1635415;86;20951;-58
2022/09/21 09:13:42;;;;;;;1.87;1.32;;;;;;;27.15;33.03;99838.91;1628184;87;21102;-58
2022/09/21 09:16:49;;;;;;;1.75;1.02;;;;;;;27.16;32.60;99835.16;1634222;87;21027;-58
2022/09/21 09:19:30;;;;;;;1.50;1.00;;;;;;;27.26;32.63;99842.13;1611360;87;21100;-58
2022/09/21 09:21:58;;;;;;;2.00;1.07;;;;;;;27.38;33.07;99831.66;1610904;87;21257;-56
2022/09/21 09:24:41;;;;;;;1.45;0.80;;;;;;;27.43;32.96;99828.61;1604057;87;21054;-56
2022/09/21 09:27:16;;;;;;;1.55;0.80;;;;;;;27.55;32.47;99828.31;1634850;87;21101;-56
2022/09/21 09:29:48;;;;;;;1.50;0.93;;;;;;;27.62;30.49;99829.23;1634995;87;21575;-58
2022/09/21 09:32:16;;;;;;;1.30;0.88;;;;;;;27.41;30.73;99835.07;1635684;87;21095;-56
2022/09/21 09:34:52;;;;;;;3.08;1.60;;;;;;;27.46;31.84;99833.36;1634527;87;21925;-56
2022/09/21 09:37:19;;;;;;;1.62;0.88;;;;;;;27.40;31.48;99832.72;1634564;87;21658;-57
2022/09/21 09:39:55;;;;;;;2.15;0.88;;;;;;;27.20;32.23;99843.37;1634524;87;21468;-56
2022/09/21 09:42:36;;;;;;;0.80;0.70;;;;;;;27.10;32.02;99842.23;1635018;87;21011;-67
2022/09/21 09:45:21;;;;;;;2.40;1.00;;;;;;;27.00;32.18;99846.47;1633814;87;21119;-68
2022/09/21 09:48:21;;;;;;;1.45;0.90;;;;;;;26.87;32.70;99851.56;1635394;87;21117;-56
2022/09/21 09:50:48;;;;;;;6.70;4.30;;;;;;;26.66;32.39;99851.20;1634979;87;20991;-57
2022/09/21 09:53:19;;;;;;;3.07;1.80;;;;;;;26.62;32.74;99850.22;1635096;86;21035;-57
2022/09/21 09:55:51;;;;;;;2.87;1.42;;;;;;;26.57;33.27;99852.22;1634781;87;21009;-66
2022/09/21 09:58:42;;;;;;;3.27;1.50;;;;;;;26.37;33.92;99843.50;1634152;86;21129;-59
2022/09/21 10:01:09;;;;;;;0.98;0.68;;;;;;;26.42;33.34;99851.95;1634950;87;21153;-58
2022/09/21 10:03:37;;;;;;;1.30;0.67;;;;;;;26.39;33.21;99848.53;1614994;87;21307;-56
2022/09/21 10:06:05;;;;;;;1.50;0.90;;;;;;;26.34;32.77;99845.97;1634567;87;21031;-66
2022/09/21 10:08:42;;;;;;;2.43;1.03;;;;;;;26.28;33.10;99849.82;1626079;86;21634;-56
2022/09/21 10:11:11;;;;;;;0.97;0.60;;;;;;;26.25;33.83;99841.84;1651889;86;21071;-56
2022/09/21 10:13:43;;;;;;;1.77;1.17;;;;;;;26.29;32.59;99844.20;1652217;86;21494;-56
2022/09/21 10:16:20;;;;;;;1.33;0.80;;;;;;;26.05;32.87;99844.92;1651571;86;21035;-57
2022/09/21 10:19:00;;;;;;;1.10;0.70;;;;;;;26.19;33.49;99843.84;1651169;86;21461;-56
2022/09/21 10:21:36;;;;;;;1.90;1.13;;;;;;;26.30;33.05;99844.44;1651776;86;21034;-57
2022/09/21 10:24:13;;;;;;;2.07;1.20;;;;;;;26.26;33.71;99842.66;1651705;86;21046;-58
2022/09/21 10:26:49;;;;;;;1.47;0.90;;;;;;;26.30;33.52;99837.76;1652108;86;21329;-58
2022/09/21 10:29:24;;;;;;;2.83;1.27;;;;;;;26.35;33.41;99840.31;1652190;86;21126;-56
2022/09/21 10:32:07;;;;;;;1.30;0.90;;;;;;;26.31;33.61;99839.33;1651269;86;21007;-60
2022/09/21 10:34:34;;;;;;;2.27;1.00;;;;;;;26.36;33.93;99842.44;1651877;86;21097;-56
2022/09/21 10:37:10;;;;;;;2.07;1.00;;;;;;;26.43;33.01;99844.17;1652179;86;21027;-56
2022/09/21 10:39:42;;;;;;;1.57;0.83;;;;;;;26.33;33.08;99847.04;1645476;86;21816;-56
2022/09/21 10:42:15;;;;;;;1.37;0.83;;;;;;;26.20;33.21;99838.73;1627804;86;21039;-57
2022/09/21 10:44:55;;;;;;;2.23;1.00;;;;;;;26.09;33.95;99841.35;1652107;86;21046;-57
2022/09/21 10:47:38;;;;;;;1.40;0.90;;;;;;;26.03;33.62;99836.42;1649723;86;20989;-57
2022/09/21 10:50:26;;;;;;;1.63;0.93;;;;;;;25.88;34.58;99842.84;1651764;86;21364;-58
2022/09/21 10:53:10;;;;;;;1.60;0.93;;;;;;;25.94;33.89;99838.42;1651753;86;22493;-57
2022/09/21 10:55:45;;;;;;;1.80;0.80;;;;;;;26.05;34.13;99845.70;1629198;86;21030;-56
2022/09/21 10:58:13;;;;;;;2.47;1.00;;;;;;;26.00;34.37;99843.69;1652023;86;21031;-67
2022/09/21 11:00:50;;;;;;;2.00;0.87;;;;;;;25.87;33.93;99836.68;1651550;86;20967;-57
2022/09/21 11:03:52;;;;;;;1.40;0.80;;;;;;;25.77;34.41;99841.41;1652087;86;20951;-56
2022/09/21 11:06:39;;;;;;;1.50;1.10;;;;;;;25.68;34.84;99834.59;1638886;86;21471;-59
2022/09/21 11:09:13;;;;;;;2.23;1.00;;;;;;;25.60;34.16;99836.61;1652066;86;20951;-56
2022/09/21 11:11:52;;;;;;;1.73;1.20;;;;;;;25.33;34.53;99840.77;1652085;86;21000;-66
2022/09/21 11:14:47;;;;;;;1.27;0.87;;;;;;;25.12;34.49;99842.19;1652654;86;21074;-56
2022/09/21 11:17:44;;;;;;;2.07;0.90;;;;;;;24.94;35.68;99836.53;1651566;86;21007;-67
2022/09/21 11:20:37;;;;;;;2.07;1.10;;;;;;;24.95;35.72;99843.44;1652831;86;21340;-57
2022/09/21 11:23:19;;;;;;;1.43;0.83;;;;;;;24.97;35.26;99839.95;1651547;86;21734;-56
2022/09/21 11:26:04;;;;;;;1.13;0.87;;;;;;;25.07;34.71;99844.88;1634064;86;21085;-56
2022/09/21 11:28:54;;;;;;;1.43;0.83;;;;;;;25.16;34.86;99843.98;1650855;86;20982;-58
2022/09/21 11:31:50;;;;;;;2.25;0.80;;;;;;;25.19;34.76;99846.59;1652357;86;21006;-56
2022/09/21 11:34:54;;;;;;;2.10;1.00;;;;;;;25.09;35.45;99843.52;1651688;86;21873;-56
2022/09/21 11:37:48;;;;;;;1.20;0.73;;;;;;;25.12;35.41;99843.52;1651479;86;21141;-59
2022/09/21 11:41:11;;;;;;;1.53;0.80;;;;;;;25.20;35.28;99834.86;1652066;86;21027;-57
2022/09/21 11:43:55;;;;;;;1.50;0.90;;;;;;;25.08;34.94;99835.79;1651965;86;21182;-56
2022/09/21 11:46:37;;;;;;;3.27;1.10;;;;;;;24.85;34.54;99838.27;1651601;86;21082;-63
2022/09/21 11:49:27;;;;;;;1.33;0.80;;;;;;;24.48;35.53;99850.47;1651821;86;21146;-58
2022/09/21 11:52:24;;;;;;;1.33;0.93;;;;;;;24.28;35.97;99861.30;1651592;86;21087;-59
2022/09/21 11:55:08;;;;;;;2.27;0.93;;;;;;;24.14;36.22;99862.54;1650937;86;33239;-58
2022/09/21 11:58:02;;;;;;;1.47;0.90;;;;;;;24.01;36.98;99861.32;1651427;86;20971;-58
2022/09/21 12:00:34;;;;;;;1.83;1.13;;;;;;;23.95;37.31;99863.00;1652073;86;21085;-56
2022/09/21 12:03:39;;;;;;;2.63;1.40;;;;;;;23.93;37.39;99863.81;1651943;86;21886;-66
2022/09/21 12:06:54;;;;;;;1.53;1.00;;;;;;;23.87;37.98;99864.41;1651996;86;21038;-57
2022/09/21 12:09:39;;;;;;;1.50;0.87;;;;;;;23.86;38.28;99864.13;1651868;86;20995;-57